Time;durP1;ratioP1;P1;durP2;ratioP2;P2;SDS_P1;SDS_P2;PMS_P1;PMS_P2;Temp;Humidity;BMP_temperature;BMP_pressure;BME280_temperature;BME280_humidity;BME280_pressure;Samples;Min_cycle;Max_cycle;Signal;HPM_P1;HPM_P2
2022/08/20 00:00:46;;;;;;;13.43;12.23;;;;;;;17.24;100.00;96282.41;5053192;27;102030;-61
2022/08/20 00:03:18;;;;;;;12.97;11.87;;;;;;;17.22;100.00;96271.16;5050376;27;103243;-61
2022/08/20 00:05:53;;;;;;;12.23;11.13;;;;;;;17.24;100.00;96275.16;5049907;27;101980;-61
2022/08/20 00:08:22;;;;;;;12.20;11.20;;;;;;;17.34;100.00;96274.16;5035324;27;105617;-61
2022/08/20 00:10:51;;;;;;;11.23;10.23;;;;;;;17.33;100.00;96267.97;5029430;28;105289;-61
2022/08/20 00:13:25;;;;;;;11.47;10.47;;;;;;;17.35;100.00;96273.06;5043035;27;101896;-61
2022/08/20 00:16:31;;;;;;;9.27;8.47;;;;;;;17.35;100.00;96265.00;5049666;27;105601;-61
2022/08/20 00:18:59;;;;;;;9.97;9.07;;;;;;;17.40;100.00;96273.81;5051378;27;101996;-61
2022/08/20 00:21:26;;;;;;;9.27;8.47;;;;;;;17.34;100.00;96266.09;5032354;27;102218;-61
2022/08/20 00:23:56;;;;;;;9.13;8.33;;;;;;;17.38;100.00;96264.44;5034538;28;102419;-61
2022/08/20 00:26:27;;;;;;;9.43;8.63;;;;;;;17.39;100.00;96258.75;5030196;27;101993;-61
2022/08/20 00:28:54;;;;;;;9.60;8.70;;;;;;;17.31;100.00;96269.38;5030094;28;105194;-61
2022/08/20 00:31:24;;;;;;;9.13;8.33;;;;;;;17.27;100.00;96263.78;5041753;27;103887;-61
2022/08/20 00:33:51;;;;;;;8.10;7.40;;;;;;;17.21;100.00;96258.78;5031463;28;101935;-61
2022/08/20 00:39:43;;;;;;;8.70;7.90;;;;;;;17.15;100.00;96246.53;5031154;28;101908;-61
2022/08/20 00:42:11;;;;;;;8.20;7.50;;;;;;;17.10;100.00;96258.16;5035796;27;101902;-61
2022/08/20 00:44:45;;;;;;;8.73;8.00;;;;;;;17.09;100.00;96248.53;5044375;27;105100;-61
2022/08/20 00:47:48;;;;;;;8.57;7.77;;;;;;;17.12;100.00;96247.91;5035132;27;101849;-61
2022/08/20 00:50:43;;;;;;;9.20;8.50;;;;;;;17.09;100.00;96239.66;5029776;28;103632;-61
2022/08/20 00:53:11;;;;;;;9.37;8.53;;;;;;;17.04;100.00;96235.16;5031540;27;103132;-61
2022/08/20 00:56:32;;;;;;;9.90;9.10;;;;;;;16.98;100.00;96241.72;5043855;27;101932;-61
2022/08/20 00:59:02;;;;;;;9.80;8.90;;;;;;;16.97;100.00;96242.00;5031239;27;102430;-61
2022/08/20 01:01:33;;;;;;;11.00;10.00;;;;;;;16.93;100.00;96241.81;5043481;27;102043;-61
2022/08/20 01:04:00;;;;;;;11.13;10.17;;;;;;;16.91;100.00;96248.56;5050306;27;101728;-61
2022/08/20 01:07:09;;;;;;;10.90;10.00;;;;;;;16.95;100.00;96266.47;5029015;27;105017;-61
2022/08/20 01:09:37;;;;;;;12.93;11.83;;;;;;;16.93;100.00;96268.66;5031439;27;105978;-61
2022/08/20 01:12:07;;;;;;;13.37;12.17;;;;;;;16.98;100.00;96282.03;5028387;27;106736;-61
2022/08/20 01:14:42;;;;;;;12.70;11.57;;;;;;;17.01;100.00;96297.53;5029354;27;102069;-61
2022/08/20 01:17:32;;;;;;;11.40;10.30;;;;;;;16.96;100.00;96296.84;5028394;28;101823;-61
2022/08/20 01:20:33;;;;;;;11.50;10.47;;;;;;;16.87;100.00;96303.94;5030023;27;101790;-61
2022/08/20 01:23:31;;;;;;;12.13;10.93;;;;;;;16.87;100.00;96285.16;5027887;28;105304;-61
2022/08/20 01:29:26;;;;;;;11.57;10.57;;;;;;;16.84;100.00;96288.44;5043105;27;102844;-61
2022/08/20 01:31:59;;;;;;;17.03;11.63;;;;;;;16.81;100.00;96297.06;5047992;27;105959;-61
2022/08/20 01:34:27;;;;;;;12.40;11.30;;;;;;;16.79;100.00;96288.50;5046453;27;101768;-61
2022/08/20 01:36:58;;;;;;;12.40;11.20;;;;;;;16.78;100.00;96287.69;5028923;28;104102;-61
2022/08/20 01:39:28;;;;;;;10.90;10.00;;;;;;;16.86;100.00;96280.88;5029276;27;101879;-61
2022/08/20 01:42:03;;;;;;;9.27;8.47;;;;;;;16.99;100.00;96277.44;5029391;28;105303;-61
2022/08/20 01:44:32;;;;;;;9.20;8.50;;;;;;;16.98;100.00;96270.47;5045021;27;105721;-61
2022/08/20 01:47:11;;;;;;;9.43;8.53;;;;;;;17.03;100.00;96267.69;5048782;27;101823;-61
2022/08/20 01:49:50;;;;;;;10.30;9.40;;;;;;;16.98;100.00;96267.78;5050808;27;102330;-61
2022/08/20 01:52:26;;;;;;;10.93;9.93;;;;;;;17.02;100.00;96277.66;5043929;27;105547;-61
2022/08/20 01:54:53;;;;;;;11.70;10.60;;;;;;;17.06;100.00;96277.88;5030935;27;101874;-61
2022/08/20 01:58:16;;;;;;;10.50;9.70;;;;;;;17.07;100.00;96290.22;5030945;28;105571;-61
2022/08/20 02:00:45;;;;;;;11.60;10.57;;;;;;;17.10;100.00;96284.22;5030029;27;101919;-61
2022/08/20 02:03:12;;;;;;;10.20;9.27;;;;;;;16.98;100.00;96292.75;5028978;27;105493;-61
2022/08/20 02:05:39;;;;;;;10.50;9.43;;;;;;;16.91;100.00;96283.47;5029588;27;101719;-61
2022/08/20 02:08:07;;;;;;;9.63;8.83;;;;;;;16.95;100.00;96276.44;5030051;27;101842;-61
2022/08/20 02:10:34;;;;;;;10.10;9.10;;;;;;;16.94;100.00;96286.38;5032327;28;105101;-61
2022/08/20 02:13:04;;;;;;;8.20;7.53;;;;;;;16.95;100.00;96281.81;5031396;27;105761;-61
2022/08/20 02:15:46;;;;;;;8.57;7.67;;;;;;;16.89;100.00;96283.75;5033474;28;101853;-61
2022/08/20 02:18:15;;;;;;;8.70;8.00;;;;;;;16.88;100.00;96284.84;5033603;28;102312;-61
2022/08/20 02:20:44;;;;;;;9.20;8.40;;;;;;;16.88;100.00;96281.38;5035051;28;105501;-61
2022/08/20 02:23:14;;;;;;;8.93;8.13;;;;;;;16.91;100.00;96291.53;5032745;27;102518;-61
2022/08/20 02:25:48;;;;;;;8.03;7.33;;;;;;;16.82;100.00;96307.50;5031097;28;104780;-61
2022/08/20 02:28:19;;;;;;;8.97;8.20;;;;;;;16.84;100.00;96302.63;5033536;28;101690;-61
2022/08/20 02:30:51;;;;;;;8.80;7.90;;;;;;;16.79;100.00;96299.25;5033131;27;103853;-61
2022/08/20 02:33:21;;;;;;;8.07;7.27;;;;;;;16.72;100.00;96299.59;5031047;28;105657;-61
2022/08/20 02:35:55;;;;;;;7.20;6.60;;;;;;;16.69;100.00;96304.75;5033171;28;101841;-61
2022/08/20 02:38:22;;;;;;;9.07;8.17;;;;;;;16.68;100.00;96292.44;5034299;27;105625;-61
2022/08/20 02:40:50;;;;;;;8.90;8.10;;;;;;;16.73;100.00;96289.66;5051675;27;105797;-61
2022/08/20 02:43:18;;;;;;;12.10;10.90;;;;;;;16.85;100.00;96284.66;5053897;27;102046;-61
2022/08/20 02:45:47;;;;;;;10.27;9.27;;;;;;;16.83;100.00;96295.69;5051889;27;102731;-61
2022/08/20 02:48:21;;;;;;;9.17;8.37;;;;;;;16.75;100.00;96298.22;5050237;27;101885;-61
2022/08/20 02:50:53;;;;;;;9.30;8.40;;;;;;;16.74;100.00;96285.88;5053367;27;102373;-61
2022/08/20 02:53:21;;;;;;;8.73;7.90;;;;;;;17.06;100.00;96305.53;5049303;27;102866;-61
2022/08/20 02:56:44;;;;;;;8.37;7.67;;;;;;;16.99;100.00;96305.09;5031811;28;101948;-61
2022/08/20 02:59:11;;;;;;;7.23;6.63;;;;;;;16.93;100.00;96290.16;5051492;27;102623;-61
2022/08/20 03:01:40;;;;;;;7.50;6.90;;;;;;;16.93;100.00;96278.59;5052288;27;104746;-61
2022/08/20 03:04:08;;;;;;;8.07;7.37;;;;;;;16.92;100.00;96282.38;5054398;27;102223;-61
2022/08/20 03:06:35;;;;;;;7.83;7.13;;;;;;;16.93;100.00;96276.72;5052423;27;103102;-61
2022/08/20 03:09:04;;;;;;;8.43;7.63;;;;;;;16.93;100.00;96279.41;5035145;27;101870;-61
2022/08/20 03:11:32;;;;;;;8.57;7.73;;;;;;;16.95;100.00;96284.50;5032522;28;102293;-61
2022/08/20 03:13:59;;;;;;;9.10;8.30;;;;;;;16.96;100.00;96284.19;5030644;27;105800;-61
2022/08/20 03:19:50;;;;;;;10.87;9.70;;;;;;;17.01;100.00;96275.25;5032810;27;102558;-61
2022/08/20 03:22:17;;;;;;;10.63;9.73;;;;;;;17.00;100.00;96279.03;5032145;27;101690;-61
2022/08/20 03:24:44;;;;;;;10.40;9.50;;;;;;;16.95;100.00;96271.06;5046441;27;101848;-61
2022/08/20 03:27:25;;;;;;;10.40;9.50;;;;;;;16.89;100.00;96275.72;5051746;27;105687;-61
2022/08/20 03:29:52;;;;;;;10.27;9.27;;;;;;;16.89;100.00;96277.59;5032721;28;101829;-61
2022/08/20 03:32:19;;;;;;;11.23;10.23;;;;;;;16.89;100.00;96272.25;5030950;27;106603;-61
2022/08/20 03:34:47;;;;;;;11.10;10.10;;;;;;;16.87;100.00;96274.41;5043537;27;105544;-61
2022/08/20 03:40:39;;;;;;;11.63;10.57;;;;;;;16.82;100.00;96283.34;5031581;28;101675;-61
2022/08/20 03:43:08;;;;;;;12.63;11.53;;;;;;;16.80;100.00;96285.53;5030678;27;102665;-61
2022/08/20 03:46:01;;;;;;;13.83;12.03;;;;;;;16.81;100.00;96299.75;5029727;28;101856;-61
2022/08/20 03:48:56;;;;;;;14.43;13.13;;;;;;;16.85;100.00;96324.94;5030895;27;103569;-61
2022/08/20 03:51:23;;;;;;;11.23;10.20;;;;;;;16.83;100.00;96322.53;5033604;27;105955;-61
2022/08/20 03:53:50;;;;;;;9.90;9.00;;;;;;;16.86;100.00;96315.78;5036176;27;105190;-61
2022/08/20 03:56:42;;;;;;;8.30;7.60;;;;;;;16.82;100.00;96318.25;5046392;27;105571;-61
2022/08/20 03:59:10;;;;;;;7.40;6.80;;;;;;;16.81;100.00;96324.72;5030182;28;101961;-61
2022/08/20 04:01:36;;;;;;;7.70;6.90;;;;;;;16.81;100.00;96321.22;5031994;27;101896;-61
2022/08/20 04:04:04;;;;;;;9.17;8.23;;;;;;;16.85;100.00;96328.41;5031173;27;101976;-61
2022/08/20 04:09:55;;;;;;;9.77;8.87;;;;;;;16.95;100.00;96327.47;5032067;28;102761;-61
2022/08/20 04:12:25;;;;;;;10.43;9.43;;;;;;;16.95;100.00;96325.56;5042032;27;103234;-61
2022/08/20 04:14:52;;;;;;;9.37;8.57;;;;;;;16.96;100.00;96337.13;5041219;27;101745;-61
2022/08/20 04:17:52;;;;;;;11.17;10.13;;;;;;;16.92;100.00;96336.09;5029555;27;105948;-61
2022/08/20 04:21:11;;;;;;;11.73;10.63;;;;;;;16.94;100.00;96339.31;5044635;27;101801;-61
2022/08/20 04:23:39;;;;;;;12.60;11.40;;;;;;;16.92;100.00;96341.47;5050014;27;102779;-61
2022/08/20 04:26:36;;;;;;;12.33;11.10;;;;;;;16.92;100.00;96344.16;5048539;27;105283;-61
2022/08/20 04:29:05;;;;;;;10.73;9.73;;;;;;;16.95;100.00;96344.38;5030935;28;101764;-61
2022/08/20 04:31:33;;;;;;;8.27;7.53;;;;;;;16.92;100.00;96336.91;5030829;27;102447;-61
2022/08/20 04:34:01;;;;;;;8.50;7.80;;;;;;;16.99;100.00;96341.91;5030729;27;102799;-61
2022/08/20 04:36:28;;;;;;;8.53;7.80;;;;;;;17.06;100.00;96347.72;5031386;27;101820;-61
2022/08/20 04:38:55;;;;;;;8.23;7.53;;;;;;;17.11;100.00;96350.34;5034222;28;102319;-61
2022/08/20 04:41:23;;;;;;;8.63;7.83;;;;;;;17.12;100.00;96350.03;5037638;27;101978;-61
2022/08/20 04:43:52;;;;;;;8.93;8.20;;;;;;;17.18;100.00;96346.19;5042400;27;103877;-61
2022/08/20 04:49:44;;;;;;;12.97;11.77;;;;;;;17.22;100.00;96347.19;5029910;28;101906;-61
2022/08/20 04:52:11;;;;;;;13.83;12.43;;;;;;;17.24;100.00;96345.03;5030370;27;102853;-61
2022/08/20 04:54:39;;;;;;;13.53;12.23;;;;;;;17.28;100.00;96346.00;5034203;27;102512;-61
2022/08/20 05:00:30;;;;;;;14.27;12.87;;;;;;;17.29;100.00;96361.06;5029905;28;101644;-61
2022/08/20 05:02:57;;;;;;;15.20;13.80;;;;;;;17.24;100.00;96366.53;5032979;27;102796;-61
2022/08/20 05:05:27;;;;;;;14.30;12.90;;;;;;;17.25;100.00;96353.88;5034149;27;102513;-61
2022/08/20 05:07:56;;;;;;;14.33;12.83;;;;;;;17.17;100.00;96367.97;5048467;27;105815;-61
2022/08/20 05:10:24;;;;;;;13.43;11.97;;;;;;;17.20;100.00;96370.06;5045850;27;101899;-61
2022/08/20 05:12:51;;;;;;;13.40;12.10;;;;;;;17.11;100.00;96369.16;5028763;27;104685;-61
2022/08/20 05:15:20;;;;;;;13.33;11.90;;;;;;;17.09;100.00;96369.44;5029427;27;103747;-61
2022/08/20 05:17:50;;;;;;;13.40;12.10;;;;;;;17.12;100.00;96376.13;5029949;28;101670;-61
2022/08/20 05:20:18;;;;;;;14.33;12.83;;;;;;;17.09;100.00;96374.81;5038740;27;103953;-61
2022/08/20 05:22:47;;;;;;;14.17;12.70;;;;;;;17.08;100.00;96381.28;5051467;27;105441;-61
2022/08/20 05:25:54;;;;;;;12.83;11.53;;;;;;;17.15;100.00;96379.00;5046342;27;105669;-61
2022/08/20 05:28:25;;;;;;;13.57;12.20;;;;;;;17.15;100.00;96383.56;5028002;27;105499;-61
2022/08/20 05:30:53;;;;;;;14.30;13.00;;;;;;;17.11;100.00;96383.38;5029773;27;101927;-61
2022/08/20 05:33:22;;;;;;;14.60;13.17;;;;;;;17.09;100.00;96379.38;5032676;27;102355;-61
2022/08/20 05:36:16;;;;;;;15.33;13.87;;;;;;;17.12;100.00;96379.59;5048593;27;102555;-61
2022/08/20 05:38:45;;;;;;;15.90;14.30;;;;;;;17.14;100.00;96377.41;5042407;27;102161;-61
2022/08/20 05:41:12;;;;;;;16.63;15.10;;;;;;;17.08;100.00;96385.84;5045650;27;102599;-61
2022/08/20 05:43:40;;;;;;;16.73;15.07;;;;;;;17.09;100.00;96388.25;5031220;27;102585;-61
2022/08/20 05:49:46;;;;;;;19.07;17.07;;;;;;;17.17;100.00;96392.16;5051495;27;105402;-61
2022/08/20 05:52:13;;;;;;;18.60;16.60;;;;;;;17.18;100.00;96393.75;5035383;27;102032;-61
2022/08/20 05:54:42;;;;;;;17.33;15.70;;;;;;;17.22;100.00;96400.16;5032952;27;102439;-61
2022/08/20 05:57:44;;;;;;;18.30;16.50;;;;;;;17.31;100.00;96395.69;5032391;28;103178;-61
2022/08/20 06:00:13;;;;;;;17.33;15.73;;;;;;;17.40;100.00;96402.06;5033195;27;101896;-61
2022/08/20 06:05:27;;;;;;;19.47;17.40;;;;;;;17.46;100.00;96396.31;5051540;27;101986;-61
2022/08/20 06:07:55;;;;;;;20.40;18.30;;;;;;;17.47;100.00;96397.91;5032923;28;101969;-61
2022/08/20 06:10:24;;;;;;;20.07;18.00;;;;;;;17.44;100.00;96400.38;5035640;28;102396;-61
2022/08/20 06:12:52;;;;;;;19.90;17.90;;;;;;;17.41;100.00;96403.66;5035622;27;102028;-61
2022/08/20 06:22:05;;;;;;;20.47;18.33;;;;;;;17.33;100.00;96402.38;5034974;27;102130;-61
2022/08/20 06:24:32;;;;;;;20.60;18.50;;;;;;;17.35;100.00;96413.66;5032278;27;102294;-61
2022/08/20 06:27:03;;;;;;;21.40;19.20;;;;;;;17.34;100.00;96413.94;5044358;27;101931;-61
2022/08/20 06:29:32;;;;;;;20.80;18.77;;;;;;;17.41;100.00;96414.41;5052761;27;102067;-61
2022/08/20 06:32:00;;;;;;;20.10;18.10;;;;;;;17.39;100.00;96413.91;5040007;27;102425;-61
2022/08/20 06:34:27;;;;;;;20.40;18.40;;;;;;;17.40;100.00;96418.19;5033890;27;105678;-61
2022/08/20 06:37:38;;;;;;;21.30;19.20;;;;;;;17.39;100.00;96421.97;5042419;27;105497;-61
2022/08/20 06:40:08;;;;;;;20.70;18.60;;;;;;;17.39;100.00;96427.34;5030333;28;105400;-61
2022/08/20 06:42:42;;;;;;;20.97;18.87;;;;;;;17.39;100.00;96420.06;5032304;27;101806;-61
2022/08/20 06:45:10;;;;;;;20.17;18.17;;;;;;;17.37;100.00;96418.72;5036082;27;102600;-61
2022/08/20 06:47:40;;;;;;;19.67;17.63;;;;;;;17.39;100.00;96425.44;5051222;27;102772;-61
2022/08/20 06:50:12;;;;;;;19.83;17.93;;;;;;;17.43;100.00;96428.38;5048323;27;101815;-61
2022/08/20 06:52:39;;;;;;;19.60;17.60;;;;;;;17.48;100.00;96421.00;5032185;27;103504;-61
2022/08/20 06:55:09;;;;;;;18.87;17.03;;;;;;;17.46;100.00;96427.75;5032208;27;102644;-61
2022/08/20 06:57:38;;;;;;;19.07;17.10;;;;;;;17.47;100.00;96426.66;5042387;27;101920;-61
2022/08/20 07:00:09;;;;;;;18.77;16.87;;;;;;;17.54;100.00;96441.34;5051279;27;102550;-61
2022/08/20 07:02:36;;;;;;;17.73;16.03;;;;;;;17.51;100.00;96431.19;5044271;27;101778;-61
2022/08/20 07:05:03;;;;;;;17.23;15.43;;;;;;;17.44;100.00;96435.34;5032028;27;102292;-61
2022/08/20 07:07:30;;;;;;;16.77;15.07;;;;;;;17.45;100.00;96437.72;5031310;27;102819;-61
2022/08/20 07:10:01;;;;;;;17.30;15.60;;;;;;;17.47;100.00;96437.44;5036134;27;101883;-61
2022/08/20 07:12:28;;;;;;;16.67;14.90;;;;;;;17.50;100.00;96445.69;5031418;28;102543;-61
2022/08/20 07:14:57;;;;;;;16.20;14.60;;;;;;;17.48;100.00;96447.09;5031037;27;105527;-61
2022/08/20 07:20:46;;;;;;;16.80;15.10;;;;;;;17.49;100.00;96449.50;5034804;27;102428;-61
2022/08/20 07:23:13;;;;;;;16.90;15.30;;;;;;;17.52;100.00;96453.47;5030322;28;102068;-61
2022/08/20 07:25:44;;;;;;;15.53;13.93;;;;;;;17.51;100.00;96451.88;5032580;27;102304;-61
2022/08/20 07:28:15;;;;;;;15.87;14.27;;;;;;;17.43;100.00;96447.97;5031281;28;101962;-61
2022/08/20 07:33:29;;;;;;;16.10;14.60;;;;;;;17.51;100.00;96446.50;5030153;28;105575;-61
2022/08/20 07:36:43;;;;;;;15.37;13.87;;;;;;;17.48;100.00;96447.09;5041027;27;105529;-61
2022/08/20 07:39:10;;;;;;;14.93;13.53;;;;;;;17.54;100.00;96445.94;5050497;27;102136;-61
2022/08/20 07:41:38;;;;;;;15.40;13.77;;;;;;;17.55;100.00;96442.16;5034107;27;104042;-61
2022/08/20 07:44:05;;;;;;;14.80;13.40;;;;;;;17.57;100.00;96456.91;5029699;27;101977;-61
2022/08/20 07:46:40;;;;;;;14.87;13.47;;;;;;;17.58;100.00;96452.31;5036122;27;102427;-61
2022/08/20 07:49:17;;;;;;;14.97;13.47;;;;;;;17.64;100.00;96454.63;5051047;27;103129;-61
2022/08/20 07:51:44;;;;;;;14.97;13.47;;;;;;;17.65;100.00;96458.91;5049909;27;101705;-61
2022/08/20 07:54:11;;;;;;;13.87;12.57;;;;;;;17.71;100.00;96459.66;5050053;27;105558;-61
2022/08/20 07:56:48;;;;;;;14.37;12.83;;;;;;;17.65;100.00;96464.31;5031854;27;105960;-61
2022/08/20 07:59:15;;;;;;;13.40;12.20;;;;;;;17.63;100.00;96471.06;5029338;28;101971;-61
2022/08/20 08:01:43;;;;;;;13.93;12.63;;;;;;;17.73;100.00;96466.34;5030668;27;103633;-61
2022/08/20 08:04:11;;;;;;;13.20;11.90;;;;;;;17.69;100.00;96473.38;5033869;28;102736;-61
2022/08/20 08:10:02;;;;;;;12.10;11.00;;;;;;;17.71;100.00;96473.88;5029957;27;104251;-61
2022/08/20 08:12:36;;;;;;;13.40;12.20;;;;;;;17.71;100.00;96473.88;5029273;27;102011;-61
2022/08/20 08:15:05;;;;;;;12.40;11.33;;;;;;;17.57;100.00;96475.72;5029258;27;105625;-61
2022/08/20 08:17:35;;;;;;;12.87;11.77;;;;;;;17.68;100.00;96479.06;5041418;27;102811;-61
2022/08/20 08:20:21;;;;;;;12.73;11.57;;;;;;;17.68;100.00;96479.06;5050268;27;101848;-61
2022/08/20 08:22:49;;;;;;;13.03;11.90;;;;;;;17.68;100.00;96487.94;5049556;27;106512;-61
2022/08/20 08:26:04;;;;;;;13.33;12.13;;;;;;;17.74;100.00;96486.75;5049764;27;103207;-61
2022/08/20 08:28:31;;;;;;;13.03;11.93;;;;;;;17.78;100.00;96484.28;5054261;27;101894;-61
2022/08/20 08:30:58;;;;;;;13.33;12.17;;;;;;;17.81;100.00;96484.50;5039944;27;102741;-61
2022/08/20 08:33:31;;;;;;;12.80;11.60;;;;;;;17.86;100.00;96488.97;5030635;28;101959;-61
2022/08/20 08:36:02;;;;;;;13.00;11.80;;;;;;;17.95;100.00;96489.91;5031601;27;102253;-61
2022/08/20 08:38:31;;;;;;;12.73;11.53;;;;;;;17.93;100.00;96489.44;5039849;27;105307;-61
2022/08/20 08:41:03;;;;;;;11.93;10.83;;;;;;;18.04;100.00;96490.84;5050805;27;102186;-61
2022/08/20 08:43:31;;;;;;;13.27;11.97;;;;;;;18.11;100.00;96483.19;5045551;27;102994;-61
2022/08/20 08:46:17;;;;;;;13.83;12.57;;;;;;;18.12;100.00;96493.69;5039698;27;103133;-60
2022/08/20 08:48:52;;;;;;;12.87;11.60;;;;;;;18.01;100.00;96499.50;5034554;27;101820;-60
2022/08/20 08:51:30;;;;;;;12.50;11.37;;;;;;;18.02;100.00;96495.72;5033278;27;102474;-60
2022/08/20 08:53:58;;;;;;;13.03;11.93;;;;;;;18.06;100.00;96496.72;5046212;27;102495;-60
2022/08/20 08:59:54;;;;;;;13.07;11.77;;;;;;;18.10;100.00;96495.84;5029485;27;102988;-60
2022/08/20 09:02:24;;;;;;;13.70;12.40;;;;;;;18.03;100.00;96492.75;5028823;28;101804;-60
2022/08/20 09:04:55;;;;;;;14.27;12.97;;;;;;;18.00;100.00;96487.97;5029009;27;103388;-60
2022/08/20 09:07:52;;;;;;;14.60;13.20;;;;;;;18.02;100.00;96482.25;5028041;27;104002;-60
2022/08/20 09:10:20;;;;;;;15.07;13.47;;;;;;;18.03;100.00;96486.56;5030666;27;101953;-61
2022/08/20 09:12:48;;;;;;;14.50;13.10;;;;;;;18.14;100.00;96491.47;5029823;27;102416;-60
2022/08/20 09:15:35;;;;;;;14.83;13.53;;;;;;;18.14;100.00;96502.25;5032683;27;102630;-61
2022/08/20 09:18:02;;;;;;;14.70;13.20;;;;;;;18.12;100.00;96507.13;5031132;27;102313;-61
2022/08/20 09:20:35;;;;;;;14.53;13.13;;;;;;;18.02;100.00;96498.41;5040175;27;102622;-61
2022/08/20 09:23:06;;;;;;;14.70;13.20;;;;;;;18.02;100.00;96511.88;5048438;27;101818;-61
2022/08/20 09:25:38;;;;;;;14.30;13.00;;;;;;;18.05;100.00;96495.13;5029587;28;102333;-60
2022/08/20 09:28:05;;;;;;;15.60;14.10;;;;;;;17.94;100.00;96504.47;5045261;27;103132;-60
2022/08/20 09:30:32;;;;;;;16.63;15.00;;;;;;;18.00;100.00;96497.91;5048908;27;101837;-61
2022/08/20 09:33:00;;;;;;;17.20;15.60;;;;;;;18.04;100.00;96497.03;5033037;27;104215;-61
2022/08/20 09:35:27;;;;;;;18.33;16.43;;;;;;;18.09;100.00;96496.16;5027976;27;104821;-61
2022/08/20 09:37:56;;;;;;;18.50;16.70;;;;;;;18.11;100.00;96496.66;5033164;27;101735;-61
2022/08/20 09:40:23;;;;;;;18.63;16.93;;;;;;;18.14;100.00;96496.06;5046285;27;105910;-61
2022/08/20 09:42:51;;;;;;;19.13;17.23;;;;;;;18.16;100.00;96497.34;5047860;27;101941;-61
2022/08/20 09:45:34;;;;;;;21.07;18.87;;;;;;;18.20;100.00;96500.28;5029443;27;102449;-61
2022/08/20 09:48:01;;;;;;;20.30;18.40;;;;;;;18.16;100.00;96496.56;5041999;27;101924;-61
2022/08/20 09:50:51;;;;;;;21.37;19.27;;;;;;;18.21;100.00;96501.88;5049776;27;101974;-61
2022/08/20 09:53:22;;;;;;;21.37;19.27;;;;;;;18.16;100.00;96502.72;5049718;27;102345;-61
2022/08/20 09:55:55;;;;;;;22.10;19.57;;;;;;;18.17;100.00;96493.59;5046620;27;106311;-61
2022/08/20 09:58:27;;;;;;;22.43;19.47;;;;;;;18.18;100.00;96502.44;5052748;27;101747;-61
2022/08/20 10:00:54;;;;;;;22.37;20.17;;;;;;;18.14;100.00;96499.53;5046143;27;105734;-60
2022/08/20 10:03:22;;;;;;;23.83;21.43;;;;;;;18.13;100.00;96507.91;5049612;27;101845;-61
2022/08/20 10:06:25;;;;;;;24.03;21.70;;;;;;;18.15;100.00;96511.13;5044991;27;102418;-60
2022/08/20 10:08:54;;;;;;;23.53;21.27;;;;;;;18.23;100.00;96507.75;5038802;27;103087;-61
2022/08/20 10:11:21;;;;;;;23.60;21.40;;;;;;;18.28;100.00;96515.75;5046382;27;101895;-60
2022/08/20 10:13:48;;;;;;;25.63;23.00;;;;;;;18.32;100.00;96517.56;5049162;27;102416;-61
2022/08/20 10:16:29;;;;;;;23.50;21.20;;;;;;;18.09;100.00;96513.09;5040140;27;104037;-61
2022/08/20 10:19:19;;;;;;;18.67;16.93;;;;;;;18.18;100.00;96510.53;5027853;28;101841;-61
2022/08/20 10:21:47;;;;;;;19.10;17.30;;;;;;;18.11;100.00;96510.09;5031397;27;105513;-61
2022/08/20 10:24:15;;;;;;;17.07;15.57;;;;;;;17.96;100.00;96510.34;5027625;28;101946;-61
2022/08/20 10:30:06;;;;;;;15.77;14.37;;;;;;;18.02;100.00;96511.88;5050808;27;102577;-61
2022/08/20 10:32:33;;;;;;;16.37;14.97;;;;;;;18.00;100.00;96522.13;5045302;27;101851;-61
2022/08/20 10:35:01;;;;;;;15.67;13.93;;;;;;;18.13;100.00;96524.06;5052342;27;102594;-61
2022/08/20 10:37:28;;;;;;;11.40;10.33;;;;;;;18.10;100.00;96524.66;5031926;28;102622;-61
2022/08/20 10:39:57;;;;;;;11.03;10.03;;;;;;;18.22;100.00;96516.91;5032364;28;101888;-61
2022/08/20 10:42:24;;;;;;;10.50;9.60;;;;;;;18.38;100.00;96516.41;5032100;27;105317;-61
2022/08/20 10:44:51;;;;;;;9.67;8.87;;;;;;;18.34;100.00;96515.41;5036005;28;103256;-61
2022/08/20 10:47:31;;;;;;;7.37;6.73;;;;;;;18.19;100.00;96507.53;5033028;27;105605;-61
2022/08/20 10:50:42;;;;;;;7.40;6.77;;;;;;;18.21;100.00;96501.88;5043952;27;102752;-61
2022/08/20 10:53:09;;;;;;;7.10;6.50;;;;;;;18.43;100.00;96507.44;5045769;27;101897;-61
2022/08/20 10:55:53;;;;;;;8.67;7.87;;;;;;;18.65;100.00;96502.16;5032989;27;102333;-61
2022/08/20 10:58:20;;;;;;;9.33;8.53;;;;;;;18.92;100.00;96510.28;5032676;28;103142;-61
2022/08/20 11:00:48;;;;;;;9.53;8.83;;;;;;;19.01;100.00;96513.88;5038229;27;101933;-61
2022/08/20 11:03:15;;;;;;;9.70;8.97;;;;;;;19.13;100.00;96506.84;5053316;27;102230;-61
2022/08/20 11:09:05;;;;;;;10.63;9.80;;;;;;;19.37;100.00;96503.97;5036219;28;101901;-61
2022/08/20 11:11:33;;;;;;;10.63;9.73;;;;;;;19.46;100.00;96505.63;5030786;27;105597;-61
2022/08/20 11:14:01;;;;;;;12.67;11.67;;;;;;;19.28;100.00;96503.88;5032683;28;101807;-61
2022/08/20 11:17:19;;;;;;;13.43;12.43;;;;;;;19.49;100.00;96499.63;5048262;27;104189;-61
2022/08/20 11:19:57;;;;;;;13.40;12.20;;;;;;;19.41;100.00;96503.03;5049426;27;104136;-61
2022/08/20 11:22:24;;;;;;;12.50;11.40;;;;;;;19.55;100.00;96505.69;5052185;27;102185;-61
2022/08/20 11:24:52;;;;;;;12.60;11.60;;;;;;;19.83;100.00;96504.53;5046673;27;102019;-61
2022/08/20 11:27:58;;;;;;;11.90;10.90;;;;;;;19.82;100.00;96503.72;5029856;28;105376;-61
2022/08/20 11:30:28;;;;;;;12.27;11.23;;;;;;;19.63;100.00;96499.59;5031680;27;101985;-61
2022/08/20 11:32:55;;;;;;;11.63;10.63;;;;;;;19.37;100.00;96507.47;5034156;28;102318;-61
2022/08/20 11:35:48;;;;;;;10.90;10.00;;;;;;;19.51;100.00;96507.44;5040323;27;102217;-61
2022/08/20 11:38:16;;;;;;;10.47;9.60;;;;;;;19.59;100.00;96494.03;5036509;27;102344;-61
2022/08/20 11:40:43;;;;;;;10.10;9.30;;;;;;;19.69;100.00;96490.28;5029058;27;105454;-61
2022/08/20 11:43:12;;;;;;;10.50;9.63;;;;;;;19.69;100.00;96487.59;5039755;27;102066;-61
2022/08/20 11:45:39;;;;;;;9.63;8.83;;;;;;;19.83;100.00;96488.34;5041034;27;102329;-61
2022/08/20 11:48:06;;;;;;;9.67;8.87;;;;;;;19.73;100.00;96483.97;5031180;27;105555;-61
2022/08/20 11:50:35;;;;;;;9.77;8.97;;;;;;;19.52;100.00;96488.22;5032110;28;101858;-61
2022/08/20 11:53:02;;;;;;;10.57;9.70;;;;;;;19.83;100.00;96494.53;5031976;27;103056;-61
2022/08/20 11:55:54;;;;;;;11.43;10.47;;;;;;;19.93;100.00;96497.00;5034201;27;101971;-61
2022/08/20 11:58:22;;;;;;;12.97;11.87;;;;;;;19.86;100.00;96493.13;5041783;27;102623;-61
2022/08/20 12:00:50;;;;;;;13.40;12.30;;;;;;;19.90;100.00;96488.72;5049528;27;105882;-61
2022/08/20 12:03:17;;;;;;;14.60;13.33;;;;;;;19.99;100.00;96493.06;5039445;27;101803;-61
2022/08/20 12:05:46;;;;;;;14.60;13.30;;;;;;;19.94;100.00;96489.69;5030947;27;102496;-61
2022/08/20 12:08:14;;;;;;;13.50;12.30;;;;;;;19.75;100.00;96487.19;5030575;27;101887;-60
2022/08/20 12:10:41;;;;;;;14.90;13.60;;;;;;;19.60;100.00;96489.41;5037670;27;101873;-61
2022/08/20 12:13:08;;;;;;;14.50;13.20;;;;;;;19.59;100.00;96490.50;5051050;27;102375;-61
2022/08/20 12:16:28;;;;;;;15.33;14.03;;;;;;;19.66;100.00;96494.38;5052228;27;102502;-61
2022/08/20 12:19:01;;;;;;;15.87;14.57;;;;;;;19.22;100.00;96488.09;5035445;27;105387;-61
2022/08/20 12:21:28;;;;;;;16.43;14.97;;;;;;;19.35;100.00;96487.28;5028731;28;105909;-61
2022/08/20 12:23:55;;;;;;;16.83;15.33;;;;;;;19.52;100.00;96498.25;5029201;27;101998;-61
2022/08/20 12:26:38;;;;;;;17.37;15.77;;;;;;;19.44;100.00;96494.34;5030604;27;102345;-61
2022/08/20 12:29:05;;;;;;;17.53;16.03;;;;;;;19.32;100.00;96494.09;5030181;27;102708;-61
2022/08/20 12:31:32;;;;;;;17.97;16.47;;;;;;;19.44;100.00;96493.53;5029105;28;101959;-61